Time;durP1;ratioP1;P1;durP2;ratioP2;P2;SDS_P1;SDS_P2;PMS_P1;PMS_P2;Temp;Humidity;BMP_temperature;BMP_pressure;BME280_temperature;BME280_humidity;BME280_pressure;Samples;Min_cycle;Max_cycle;Signal;HPM_P1;HPM_P2
2023/12/17 00:00:42;;;;;;;12.20;8.05;;;2.50;99.90;;;;;;5084433;28;20228;-72
2023/12/17 00:03:28;;;;;;;15.82;9.65;;;2.40;99.90;;;;;;5083245;28;20203;-72
2023/12/17 00:06:14;;;;;;;11.05;7.88;;;2.40;99.90;;;;;;5089382;28;20246;-72
2023/12/17 00:08:59;;;;;;;14.57;9.05;;;2.40;99.90;;;;;;5077634;28;20205;-72
2023/12/17 00:11:47;;;;;;;12.40;8.88;;;2.40;99.90;;;;;;5088957;28;20238;-72
2023/12/17 00:14:32;;;;;;;20.20;8.95;;;2.20;99.90;;;;;;5080602;28;20718;-72
2023/12/17 00:17:18;;;;;;;16.45;8.73;;;2.20;99.90;;;;;;5076284;28;20285;-72
2023/12/17 00:20:04;;;;;;;11.48;7.90;;;2.20;99.90;;;;;;5089220;28;20218;-72
2023/12/17 00:22:50;;;;;;;15.32;9.43;;;2.30;99.90;;;;;;5081017;28;20249;-72
2023/12/17 00:25:36;;;;;;;16.30;8.18;;;2.30;99.90;;;;;;5076504;28;20231;-72
2023/12/17 00:28:23;;;;;;;19.48;9.80;;;2.30;99.90;;;;;;5088467;28;20215;-71
2023/12/17 00:31:09;;;;;;;13.15;10.30;;;2.20;99.90;;;;;;5085227;28;20626;-72
2023/12/17 00:33:54;;;;;;;12.32;8.38;;;2.20;99.90;;;;;;5082795;28;20703;-71
2023/12/17 00:36:40;;;;;;;15.82;10.00;;;2.30;99.90;;;;;;5087372;28;20575;-72
2023/12/17 00:39:26;;;;;;;14.48;9.73;;;2.20;99.90;;;;;;5081470;28;20574;-71
2023/12/17 00:42:11;;;;;;;11.95;9.55;;;2.20;99.90;;;;;;5077137;28;20355;-72
2023/12/17 00:44:58;;;;;;;19.55;9.23;;;2.30;99.90;;;;;;5085691;28;20563;-71
2023/12/17 00:47:44;;;;;;;13.90;8.60;;;2.40;99.90;;;;;;5084031;28;20291;-72
2023/12/17 00:50:30;;;;;;;16.17;8.23;;;2.30;99.90;;;;;;5080542;28;20207;-71
2023/12/17 00:53:15;;;;;;;16.13;8.63;;;2.20;99.90;;;;;;5088868;28;20678;-72
2023/12/17 00:56:01;;;;;;;17.85;8.88;;;2.20;99.90;;;;;;5080994;28;20200;-71
2023/12/17 00:58:47;;;;;;;12.02;7.88;;;2.20;99.90;;;;;;5087064;28;20215;-71
2023/12/17 01:01:34;;;;;;;11.68;7.75;;;2.20;99.90;;;;;;5076872;28;20224;-71
2023/12/17 01:04:19;;;;;;;12.15;7.63;;;2.20;99.90;;;;;;5079349;28;20687;-73
2023/12/17 01:07:05;;;;;;;19.30;8.93;;;2.20;99.90;;;;;;5081389;28;20200;-71
2023/12/17 01:09:51;;;;;;;17.00;9.52;;;2.20;99.90;;;;;;5082931;28;20294;-72
2023/12/17 01:12:36;;;;;;;9.23;7.65;;;2.40;99.90;;;;;;5074895;28;20239;-71
2023/12/17 01:15:22;;;;;;;11.48;8.57;;;2.40;99.90;;;;;;5074926;28;20568;-71
2023/12/17 01:18:09;;;;;;;22.40;9.25;;;2.30;99.90;;;;;;5082841;28;20208;-71
2023/12/17 01:20:54;;;;;;;18.23;8.25;;;2.30;99.90;;;;;;5074570;28;20229;-72
2023/12/17 01:23:40;;;;;;;12.18;8.93;;;2.20;99.90;;;;;;5086430;28;20204;-71
2023/12/17 01:26:27;;;;;;;12.63;7.38;;;2.10;99.90;;;;;;5084493;28;20697;-71
2023/12/17 01:29:12;;;;;;;15.88;8.07;;;2.10;99.90;;;;;;5090445;28;20901;-71
2023/12/17 01:31:58;;;;;;;15.63;8.63;;;2.20;99.90;;;;;;5085644;28;20224;-72
2023/12/17 01:34:45;;;;;;;13.98;8.98;;;2.20;99.90;;;;;;5081201;28;20877;-73
2023/12/17 01:37:31;;;;;;;20.17;9.60;;;2.30;99.90;;;;;;5078044;28;20204;-73
2023/12/17 01:40:16;;;;;;;11.13;7.70;;;2.40;99.90;;;;;;5091739;28;20207;-71
2023/12/17 01:43:04;;;;;;;16.85;8.45;;;2.40;99.90;;;;;;5074039;28;20619;-71
2023/12/17 01:45:50;;;;;;;14.15;8.27;;;2.20;99.90;;;;;;5090542;28;20204;-71
2023/12/17 01:48:36;;;;;;;19.02;8.48;;;2.10;99.90;;;;;;5073560;28;20485;-74
2023/12/17 01:51:23;;;;;;;13.02;8.85;;;2.00;99.90;;;;;;5073694;28;20230;-74
2023/12/17 01:54:09;;;;;;;17.42;8.82;;;2.00;99.90;;;;;;5085744;28;20213;-71
2023/12/17 01:56:54;;;;;;;12.80;8.68;;;1.90;99.90;;;;;;5087035;28;20306;-71
2023/12/17 01:59:41;;;;;;;16.70;9.43;;;1.90;99.90;;;;;;5087990;28;20209;-73
2023/12/17 02:02:26;;;;;;;16.98;11.60;;;1.80;99.90;;;;;;5084118;28;20238;-72
2023/12/17 02:05:12;;;;;;;23.23;11.30;;;1.70;99.90;;;;;;5087339;28;20249;-71
2023/12/17 02:07:59;;;;;;;23.45;12.82;;;1.70;99.90;;;;;;5075866;28;20209;-71
2023/12/17 02:10:45;;;;;;;18.33;11.38;;;1.70;99.90;;;;;;5090352;28;20349;-71
2023/12/17 02:13:30;;;;;;;16.08;11.18;;;1.70;99.90;;;;;;5084420;28;20219;-71
2023/12/17 02:16:16;;;;;;;16.98;10.82;;;1.70;99.90;;;;;;5079556;28;20207;-71
2023/12/17 02:19:01;;;;;;;17.60;12.52;;;1.80;99.90;;;;;;5088045;28;20222;-71
2023/12/17 02:21:47;;;;;;;19.25;13.35;;;1.80;99.90;;;;;;5084872;28;20234;-71
2023/12/17 02:24:35;;;;;;;16.27;13.43;;;1.70;99.90;;;;;;5082013;28;20219;-72
2023/12/17 02:27:22;;;;;;;31.33;16.33;;;1.80;99.90;;;;;;5088148;28;20199;-71
2023/12/17 02:30:08;;;;;;;25.65;14.73;;;1.70;99.90;;;;;;5088156;28;20215;-72
2023/12/17 02:32:54;;;;;;;23.77;15.02;;;1.80;99.90;;;;;;5082298;28;20215;-71
2023/12/17 02:35:40;;;;;;;24.63;14.57;;;1.80;99.90;;;;;;5077726;28;20207;-72
2023/12/17 02:38:25;;;;;;;19.73;13.40;;;1.90;99.90;;;;;;5078818;28;20211;-71
2023/12/17 02:41:12;;;;;;;19.83;13.48;;;1.80;99.90;;;;;;5078975;28;20223;-72
2023/12/17 02:43:58;;;;;;;25.73;14.63;;;1.90;99.90;;;;;;5081535;28;20250;-72
2023/12/17 02:46:43;;;;;;;20.38;12.82;;;1.90;99.90;;;;;;5085459;28;20212;-72
2023/12/17 02:49:31;;;;;;;21.52;14.90;;;1.80;99.90;;;;;;5090450;28;20196;-73
2023/12/17 02:52:18;;;;;;;22.83;13.40;;;1.80;99.90;;;;;;5085047;28;20317;-72
2023/12/17 02:55:04;;;;;;;20.33;12.00;;;1.70;99.90;;;;;;5078637;28;20567;-72
2023/12/17 02:57:51;;;;;;;18.15;11.52;;;1.70;99.90;;;;;;5082426;28;20315;-71
2023/12/17 03:00:37;;;;;;;20.27;11.55;;;1.70;99.90;;;;;;5080898;28;20346;-71
2023/12/17 03:03:23;;;;;;;16.92;10.65;;;1.70;99.90;;;;;;5088229;28;20299;-71
2023/12/17 03:06:09;;;;;;;19.02;11.25;;;1.80;99.90;;;;;;5081974;28;20277;-72
2023/12/17 03:08:54;;;;;;;17.42;11.10;;;1.80;99.90;;;;;;5085570;28;20673;-72
2023/12/17 03:11:40;;;;;;;15.20;11.43;;;1.90;99.90;;;;;;5087727;28;20590;-72
2023/12/17 03:14:27;;;;;;;24.23;12.35;;;2.00;99.90;;;;;;5073941;28;20208;-74
2023/12/17 03:17:12;;;;;;;18.92;11.43;;;1.90;99.90;;;;;;5087754;28;20593;-72
2023/12/17 03:19:58;;;;;;;17.95;12.82;;;1.90;99.90;;;;;;5086865;28;20242;-72
2023/12/17 03:22:44;;;;;;;18.58;11.63;;;1.90;99.90;;;;;;5078164;28;20235;-73
2023/12/17 03:25:29;;;;;;;18.88;10.40;;;1.80;99.90;;;;;;5068129;28;20327;-71
2023/12/17 03:28:15;;;;;;;16.63;10.73;;;1.70;99.90;;;;;;5083663;28;20287;-71
2023/12/17 03:31:03;;;;;;;15.00;11.10;;;1.70;99.90;;;;;;5079282;28;20710;-73
2023/12/17 03:33:48;;;;;;;20.17;11.25;;;1.70;99.90;;;;;;5082637;28;20223;-72
2023/12/17 03:36:34;;;;;;;20.08;11.60;;;1.60;99.90;;;;;;5071927;28;20197;-73
2023/12/17 03:39:20;;;;;;;19.83;12.35;;;1.60;99.90;;;;;;5080053;28;20242;-72
2023/12/17 03:42:06;;;;;;;16.15;10.98;;;1.50;99.90;;;;;;5090146;28;20293;-71
2023/12/17 03:44:51;;;;;;;16.55;11.75;;;1.60;99.90;;;;;;5085173;28;20207;-71
2023/12/17 03:47:46;;;;;;;15.00;11.27;;;1.60;99.90;;;;;;5087426;28;20196;-71
2023/12/17 03:50:32;;;;;;;18.10;10.52;;;1.70;99.90;;;;;;5083951;28;20573;-72
2023/12/17 03:53:18;;;;;;;15.73;9.82;;;1.70;99.90;;;;;;5080255;28;20227;-71
2023/12/17 03:56:07;;;;;;;26.10;12.25;;;1.70;99.90;;;;;;5087295;28;20203;-71
2023/12/17 03:58:52;;;;;;;17.25;11.27;;;1.60;99.90;;;;;;5089286;28;20206;-71
2023/12/17 04:01:45;;;;;;;19.05;12.98;;;1.50;99.90;;;;;;5081580;28;20336;-71
2023/12/17 04:04:32;;;;;;;25.98;12.18;;;1.50;99.90;;;;;;5089507;28;20273;-71
2023/12/17 04:07:17;;;;;;;20.30;12.98;;;1.60;99.90;;;;;;5081117;28;20211;-71
2023/12/17 04:10:05;;;;;;;18.33;12.77;;;1.60;99.90;;;;;;5084660;28;20565;-72
2023/12/17 04:12:51;;;;;;;18.08;12.88;;;1.60;99.90;;;;;;5082913;28;20220;-72
2023/12/17 04:15:36;;;;;;;16.67;11.82;;;1.60;99.90;;;;;;5087361;28;20360;-71
2023/12/17 04:18:22;;;;;;;18.35;12.63;;;1.50;99.90;;;;;;5090962;28;20715;-71
2023/12/17 04:21:09;;;;;;;20.35;12.40;;;1.50;99.90;;;;;;5086786;28;20266;-71
2023/12/17 04:23:54;;;;;;;16.75;11.82;;;1.40;99.90;;;;;;5078674;28;20687;-71
2023/12/17 04:26:40;;;;;;;14.05;11.40;;;1.40;99.90;;;;;;5089715;28;20253;-71
2023/12/17 04:29:25;;;;;;;15.15;10.88;;;1.40;99.90;;;;;;5081521;28;20210;-71
2023/12/17 04:32:11;;;;;;;17.67;11.25;;;1.50;99.90;;;;;;5090815;28;20235;-72
2023/12/17 04:34:57;;;;;;;13.38;9.90;;;1.50;99.90;;;;;;5091005;28;20210;-72
2023/12/17 04:37:44;;;;;;;15.40;10.38;;;1.50;99.90;;;;;;5091173;28;20563;-72
2023/12/17 04:40:29;;;;;;;12.13;10.43;;;1.60;99.90;;;;;;5074881;28;20207;-71
2023/12/17 04:43:15;;;;;;;15.20;10.77;;;1.60;99.90;;;;;;5087232;28;20306;-71
2023/12/17 04:46:01;;;;;;;13.82;10.80;;;1.70;99.90;;;;;;5091390;28;20198;-72
2023/12/17 04:48:46;;;;;;;14.52;9.27;;;1.70;99.90;;;;;;5091101;28;20620;-72
2023/12/17 04:51:32;;;;;;;11.25;8.95;;;1.50;99.90;;;;;;5075286;28;20224;-72
2023/12/17 04:54:19;;;;;;;16.98;10.80;;;1.50;99.90;;;;;;5078829;28;20215;-73
2023/12/17 04:57:05;;;;;;;16.77;10.98;;;1.40;99.90;;;;;;5077957;28;20245;-71
2023/12/17 04:59:51;;;;;;;17.50;10.07;;;1.40;99.90;;;;;;5076028;28;20196;-73
2023/12/17 05:02:37;;;;;;;12.60;9.38;;;1.40;99.90;;;;;;5075657;28;20748;-72
2023/12/17 05:05:24;;;;;;;19.20;9.48;;;1.40;99.90;;;;;;5084269;28;20580;-72
2023/12/17 05:08:09;;;;;;;15.27;9.48;;;1.30;99.90;;;;;;5081189;28;20285;-72
2023/12/17 05:10:56;;;;;;;13.02;10.10;;;1.30;99.90;;;;;;5091702;28;20215;-71
2023/12/17 05:13:41;;;;;;;13.93;9.70;;;1.30;99.90;;;;;;5080189;28;20311;-71
2023/12/17 05:16:27;;;;;;;21.98;11.93;;;1.30;99.90;;;;;;5072053;28;20203;-72
2023/12/17 05:19:13;;;;;;;16.10;11.55;;;1.10;99.90;;;;;;5075226;28;20207;-73
2023/12/17 05:21:58;;;;;;;16.05;11.07;;;1.10;99.90;;;;;;5086356;28;20238;-71
2023/12/17 05:24:44;;;;;;;16.98;10.32;;;1.30;99.90;;;;;;5091447;28;20195;-74
2023/12/17 05:27:31;;;;;;;15.45;10.10;;;1.20;99.90;;;;;;5085814;28;20321;-71
2023/12/17 05:30:16;;;;;;;17.20;10.00;;;1.30;99.90;;;;;;5079103;28;20564;-71
2023/12/17 05:33:02;;;;;;;15.10;9.70;;;1.40;99.90;;;;;;5088341;28;20226;-71
2023/12/17 05:35:48;;;;;;;14.75;9.88;;;1.30;99.90;;;;;;5091279;28;20202;-71
2023/12/17 05:38:34;;;;;;;18.17;9.43;;;1.40;99.90;;;;;;5072914;28;20563;-71
2023/12/17 05:41:19;;;;;;;18.75;10.45;;;1.40;99.90;;;;;;5068966;28;20721;-71
2023/12/17 05:44:06;;;;;;;16.00;9.07;;;1.50;99.90;;;;;;5081607;28;20202;-71
2023/12/17 05:46:52;;;;;;;22.23;9.40;;;1.40;99.90;;;;;;5086717;28;20277;-71
2023/12/17 05:49:38;;;;;;;11.32;9.60;;;1.40;99.90;;;;;;5075530;28;20586;-72
2023/12/17 05:52:24;;;;;;;14.43;9.88;;;1.20;99.90;;;;;;5084959;28;20237;-72
2023/12/17 05:55:09;;;;;;;13.80;9.55;;;1.20;99.90;;;;;;5090857;28;20361;-72
2023/12/17 05:57:55;;;;;;;16.02;9.07;;;1.10;99.90;;;;;;5090940;28;20206;-71
2023/12/17 06:00:42;;;;;;;13.50;9.07;;;1.20;99.90;;;;;;5081350;28;20220;-71
2023/12/17 06:03:28;;;;;;;16.73;10.07;;;1.20;99.90;;;;;;5078197;28;20249;-73
2023/12/17 06:06:15;;;;;;;13.63;10.00;;;1.20;99.90;;;;;;5069310;28;20207;-71
2023/12/17 06:09:00;;;;;;;12.43;8.57;;;1.20;99.90;;;;;;5089061;28;20210;-71
2023/12/17 06:11:46;;;;;;;13.15;8.63;;;1.20;99.90;;;;;;5081444;28;20234;-74
2023/12/17 06:14:31;;;;;;;13.10;9.63;;;1.20;99.90;;;;;;5091038;28;20222;-71
2023/12/17 06:17:18;;;;;;;13.40;9.00;;;1.30;99.90;;;;;;5082664;28;20277;-71
2023/12/17 06:20:06;;;;;;;11.52;9.63;;;1.30;99.90;;;;;;5089598;28;20233;-72
2023/12/17 06:22:52;;;;;;;19.08;8.63;;;1.30;99.90;;;;;;5071381;28;20200;-71
2023/12/17 06:25:38;;;;;;;15.05;9.50;;;1.20;99.90;;;;;;5078979;28;20350;-71
2023/12/17 06:28:24;;;;;;;18.67;9.75;;;1.20;99.90;;;;;;5072563;28;20273;-71
2023/12/17 06:31:10;;;;;;;14.05;9.52;;;1.20;99.90;;;;;;5089471;28;20269;-71
2023/12/17 06:33:57;;;;;;;17.20;8.38;;;1.20;99.90;;;;;;5088720;28;20589;-72
2023/12/17 06:36:42;;;;;;;12.25;8.60;;;1.10;99.90;;;;;;5090262;28;20720;-71
2023/12/17 06:39:28;;;;;;;15.70;9.93;;;1.10;99.90;;;;;;5069717;28;20199;-71
2023/12/17 06:42:13;;;;;;;14.38;9.35;;;1.10;99.90;;;;;;5080201;28;20605;-71
2023/12/17 06:44:59;;;;;;;12.90;8.82;;;1.10;99.90;;;;;;5088634;28;20207;-71
2023/12/17 06:47:45;;;;;;;11.00;8.07;;;1.20;99.90;;;;;;5078192;28;20208;-72
2023/12/17 06:50:32;;;;;;;17.98;9.02;;;1.20;99.90;;;;;;5067715;28;20788;-72
2023/12/17 06:53:18;;;;;;;17.25;8.65;;;1.30;99.90;;;;;;5082442;28;20222;-71
2023/12/17 06:56:05;;;;;;;11.55;8.15;;;1.20;99.90;;;;;;5070005;28;20272;-72
2023/12/17 06:58:52;;;;;;;13.38;8.93;;;1.30;99.90;;;;;;5090007;28;20284;-73
2023/12/17 07:01:38;;;;;;;13.70;10.00;;;1.20;99.90;;;;;;5074287;28;20772;-71
2023/12/17 07:04:24;;;;;;;14.23;9.10;;;1.20;99.90;;;;;;5082648;28;20200;-71
2023/12/17 07:07:11;;;;;;;16.10;8.90;;;1.40;99.90;;;;;;5089654;28;20238;-73
2023/12/17 07:09:56;;;;;;;11.05;8.35;;;1.40;99.90;;;;;;5083277;28;20293;-71
2023/12/17 07:12:41;;;;;;;13.43;8.20;;;1.30;99.90;;;;;;5069706;28;20220;-72
2023/12/17 07:15:27;;;;;;;12.80;8.75;;;1.30;99.90;;;;;;5067727;28;20207;-72
2023/12/17 07:18:13;;;;;;;13.00;8.25;;;1.10;99.90;;;;;;5093377;28;20212;-71
2023/12/17 07:20:59;;;;;;;14.45;7.90;;;1.10;99.90;;;;;;5090808;28;20274;-71
2023/12/17 07:23:46;;;;;;;20.02;8.30;;;1.10;99.90;;;;;;5093595;28;20241;-70
2023/12/17 07:26:31;;;;;;;13.38;8.52;;;1.10;99.90;;;;;;5081326;28;20293;-71
2023/12/17 07:29:17;;;;;;;11.90;8.32;;;1.20;99.90;;;;;;5081574;28;20208;-71
2023/12/17 07:32:03;;;;;;;18.02;9.60;;;1.20;99.90;;;;;;5089240;28;20230;-73
2023/12/17 07:34:49;;;;;;;15.15;9.43;;;1.20;99.90;;;;;;5093504;28;20235;-72
2023/12/17 07:37:34;;;;;;;11.68;7.68;;;1.20;99.90;;;;;;5082112;28;20195;-71
2023/12/17 07:40:22;;;;;;;14.65;8.48;;;1.20;99.90;;;;;;5078108;28;20258;-72
2023/12/17 07:43:07;;;;;;;12.95;8.00;;;1.20;99.90;;;;;;5085453;28;20200;-71
2023/12/17 07:45:53;;;;;;;14.82;9.07;;;1.20;99.90;;;;;;5084822;28;20283;-74
2023/12/17 07:48:38;;;;;;;10.43;8.93;;;1.10;99.90;;;;;;5082846;28;20207;-72
2023/12/17 07:51:24;;;;;;;11.82;8.38;;;1.10;99.90;;;;;;5072811;28;20737;-71
2023/12/17 07:54:10;;;;;;;14.82;9.00;;;1.20;99.90;;;;;;5093211;28;20223;-71
2023/12/17 07:56:57;;;;;;;11.50;8.93;;;1.30;99.90;;;;;;5084859;28;20561;-72
2023/12/17 07:59:44;;;;;;;17.77;8.43;;;1.40;99.90;;;;;;5085230;28;20718;-73
2023/12/17 08:02:30;;;;;;;15.52;9.13;;;1.40;99.90;;;;;;5068097;28;20224;-71
2023/12/17 08:05:17;;;;;;;12.25;8.75;;;1.40;99.90;;;;;;5069078;28;20285;-71
2023/12/17 08:08:03;;;;;;;15.32;8.45;;;1.50;99.90;;;;;;5076360;28;20204;-72
2023/12/17 08:10:49;;;;;;;15.82;10.07;;;1.50;99.90;;;;;;5084781;28;20684;-71
2023/12/17 08:13:36;;;;;;;14.73;9.60;;;1.50;99.90;;;;;;5081497;28;20615;-72
2023/12/17 08:16:22;;;;;;;13.18;9.07;;;1.50;99.90;;;;;;5077337;28;20226;-71
2023/12/17 08:19:07;;;;;;;11.38;8.05;;;1.60;99.90;;;;;;5090936;28;20257;-71
2023/12/17 08:21:53;;;;;;;10.00;8.18;;;1.70;99.90;;;;;;5077775;28;20582;-72
2023/12/17 08:24:39;;;;;;;12.32;7.45;;;1.70;99.90;;;;;;5076205;28;20191;-73
2023/12/17 08:27:24;;;;;;;11.55;8.60;;;1.70;99.90;;;;;;5081432;28;20204;-71
2023/12/17 08:30:12;;;;;;;14.38;9.95;;;1.60;99.90;;;;;;5091507;28;20231;-71
2023/12/17 08:32:58;;;;;;;14.60;9.40;;;1.70;99.90;;;;;;5092216;28;20207;-71
2023/12/17 08:35:46;;;;;;;19.73;10.05;;;1.60;99.90;;;;;;5084598;28;20563;-71
2023/12/17 08:38:32;;;;;;;15.02;9.55;;;1.70;99.90;;;;;;5077940;28;20200;-71
2023/12/17 08:41:17;;;;;;;15.38;10.52;;;1.70;99.90;;;;;;5084254;28;20240;-73
2023/12/17 08:44:03;;;;;;;23.42;11.70;;;1.80;99.90;;;;;;5082773;28;20643;-71
2023/12/17 08:46:51;;;;;;;12.88;9.70;;;1.90;99.90;;;;;;5076671;28;20203;-71
2023/12/17 08:49:36;;;;;;;17.33;11.57;;;1.90;99.90;;;;;;5091904;28;20238;-71
2023/12/17 08:52:22;;;;;;;13.73;10.20;;;1.80;99.90;;;;;;5086965;28;20235;-72
2023/12/17 08:55:08;;;;;;;11.02;9.63;;;1.90;99.90;;;;;;5074886;28;20232;-73
2023/12/17 08:57:53;;;;;;;16.83;11.18;;;2.00;99.90;;;;;;5080168;28;20208;-72
2023/12/17 09:00:39;;;;;;;15.20;10.25;;;1.80;99.90;;;;;;5062977;28;20319;-72
2023/12/17 09:03:26;;;;;;;12.95;9.23;;;1.80;99.90;;;;;;5077017;28;20203;-72
2023/12/17 09:06:12;;;;;;;14.02;9.77;;;1.90;99.90;;;;;;5091274;28;20712;-71
2023/12/17 09:08:57;;;;;;;17.95;9.60;;;1.90;99.90;;;;;;5083164;28;20282;-71
2023/12/17 09:11:43;;;;;;;18.20;10.40;;;1.90;99.90;;;;;;5080078;28;20722;-71
2023/12/17 09:14:29;;;;;;;17.20;9.82;;;2.00;99.90;;;;;;5070100;28;20567;-73
2023/12/17 09:17:15;;;;;;;10.73;8.88;;;2.00;99.90;;;;;;5091543;28;20203;-71
2023/12/17 09:20:02;;;;;;;20.67;9.55;;;2.10;99.90;;;;;;5084033;28;20203;-72
2023/12/17 09:22:47;;;;;;;17.95;9.70;;;2.10;99.90;;;;;;5076622;28;20204;-72
2023/12/17 09:25:33;;;;;;;18.23;11.35;;;2.10;99.90;;;;;;5073594;28;20204;-71
2023/12/17 09:28:18;;;;;;;17.85;11.98;;;2.10;99.90;;;;;;5078745;28;20214;-73
2023/12/17 09:31:08;;;;;;;18.88;10.77;;;2.20;99.90;;;;;;5080929;28;20224;-72
2023/12/17 09:33:54;;;;;;;12.20;10.23;;;2.20;99.90;;;;;;5079108;28;20354;-72
2023/12/17 09:36:41;;;;;;;14.52;10.02;;;2.30;99.90;;;;;;5072487;28;20285;-71
2023/12/17 09:39:27;;;;;;;15.20;10.45;;;2.40;99.90;;;;;;5080322;28;20216;-72
2023/12/17 09:42:13;;;;;;;18.40;11.80;;;2.40;99.90;;;;;;5090016;28;20309;-71
2023/12/17 09:44:59;;;;;;;22.77;11.55;;;2.50;99.90;;;;;;5088716;28;20200;-70
2023/12/17 09:47:44;;;;;;;20.00;10.30;;;2.50;99.90;;;;;;5076005;28;20675;-71
2023/12/17 09:50:30;;;;;;;19.83;12.00;;;2.50;99.90;;;;;;5075797;28;20728;-70
2023/12/17 09:53:17;;;;;;;20.75;12.93;;;2.60;99.90;;;;;;5075482;28;20207;-71
2023/12/17 09:56:02;;;;;;;26.27;14.60;;;2.60;99.90;;;;;;5083759;28;20239;-71
2023/12/17 09:58:48;;;;;;;21.83;12.43;;;2.70;99.90;;;;;;5077124;28;20665;-70
2023/12/17 10:01:33;;;;;;;21.45;13.70;;;2.80;99.90;;;;;;5079419;28;20360;-71
2023/12/17 10:04:24;;;;;;;21.25;13.00;;;2.80;99.90;;;;;;5074198;28;20273;-73
2023/12/17 10:07:10;;;;;;;30.92;17.90;;;2.90;99.90;;;;;;5088348;28;20255;-73
2023/12/17 10:09:57;;;;;;;22.80;17.85;;;3.00;99.90;;;;;;5080944;28;20807;-71
2023/12/17 10:12:43;;;;;;;24.30;16.10;;;3.10;99.90;;;;;;5081000;28;20268;-72
2023/12/17 10:15:35;;;;;;;29.77;17.92;;;3.10;99.90;;;;;;5068532;28;20204;-71
2023/12/17 10:18:22;;;;;;;27.30;17.10;;;3.20;99.90;;;;;;5079001;28;20588;-71
2023/12/17 10:21:09;;;;;;;27.10;17.67;;;3.30;99.90;;;;;;5080283;28;20765;-72
2023/12/17 10:23:55;;;;;;;27.30;18.75;;;3.40;99.90;;;;;;5087174;28;20698;-72
2023/12/17 10:26:46;;;;;;;25.25;17.95;;;3.70;99.90;;;;;;5074935;28;20203;-71
2023/12/17 10:29:33;;;;;;;23.92;17.50;;;4.00;99.90;;;;;;5066710;28;20207;-71
2023/12/17 10:32:23;;;;;;;23.80;16.38;;;4.40;99.90;;;;;;5086510;28;20620;-71
2023/12/17 10:35:09;;;;;;;21.92;16.10;;;4.90;99.90;;;;;;5082490;28;20227;-71
2023/12/17 10:38:02;;;;;;;27.00;15.98;;;5.30;99.90;;;;;;5079877;28;20199;-72
2023/12/17 10:40:49;;;;;;;22.85;15.70;;;5.60;99.90;;;;;;5077977;28;20290;-71
2023/12/17 10:43:38;;;;;;;23.02;15.23;;;5.90;99.90;;;;;;5076288;28;20730;-71
2023/12/17 10:46:25;;;;;;;28.77;14.88;;;6.00;99.90;;;;;;5091029;28;20208;-70
2023/12/17 10:49:12;;;;;;;22.80;14.32;;;6.00;99.90;;;;;;5087436;28;20339;-70
2023/12/17 10:52:00;;;;;;;22.52;14.57;;;6.00;99.90;;;;;;5087078;28;20270;-71
2023/12/17 10:54:45;;;;;;;21.13;15.25;;;5.90;99.90;;;;;;5077674;28;20209;-72
2023/12/17 10:57:35;;;;;;;21.42;15.73;;;5.70;99.90;;;;;;5077627;28;20749;-72
2023/12/17 11:00:26;;;;;;;20.08;16.05;;;5.70;99.90;;;;;;5092868;28;20227;-74
2023/12/17 11:03:14;;;;;;;19.60;16.35;;;5.70;99.90;;;;;;5086926;28;20215;-72
2023/12/17 11:06:01;;;;;;;24.17;16.25;;;5.90;99.90;;;;;;5078524;28;20216;-71
2023/12/17 11:08:46;;;;;;;29.35;17.08;;;5.80;99.90;;;;;;5083528;28;20209;-71
2023/12/17 11:11:32;;;;;;;27.83;18.95;;;5.90;99.90;;;;;;5079689;28;20637;-72
2023/12/17 11:14:19;;;;;;;25.15;18.90;;;6.10;99.90;;;;;;5072698;28;20230;-72
2023/12/17 11:17:11;;;;;;;24.20;18.67;;;6.40;99.90;;;;;;5083495;28;20262;-71
2023/12/17 11:19:58;;;;;;;25.55;18.02;;;6.60;99.90;;;;;;5077489;28;20430;-70
2023/12/17 11:22:43;;;;;;;29.02;19.30;;;6.70;99.90;;;;;;5074260;28;20582;-71
2023/12/17 11:25:32;;;;;;;29.03;19.33;;;6.60;99.90;;;;;;5065336;28;20208;-71
2023/12/17 11:28:25;;;;;;;22.90;17.33;;;6.40;99.90;;;;;;5067851;28;20443;-70
2023/12/17 11:31:12;;;;;;;23.85;16.95;;;6.40;99.90;;;;;;5080591;28;20451;-70
2023/12/17 11:33:59;;;;;;;26.25;16.23;;;6.40;99.90;;;;;;5077498;28;20218;-72
2023/12/17 11:36:45;;;;;;;24.00;16.50;;;6.30;99.90;;;;;;5072685;28;20251;-71
2023/12/17 11:39:31;;;;;;;28.52;17.15;;;6.20;99.90;;;;;;5072885;28;20950;-68
2023/12/17 11:42:19;;;;;;;27.85;15.95;;;6.20;99.90;;;;;;5071449;28;20232;-71
2023/12/17 11:45:05;;;;;;;32.27;16.37;;;6.20;99.90;;;;;;5073804;28;20344;-70
2023/12/17 11:47:50;;;;;;;21.95;15.85;;;6.20;99.90;;;;;;5075711;28;20428;-69
2023/12/17 11:50:46;;;;;;;28.30;16.48;;;6.20;99.90;;;;;;5073454;28;20545;-70
2023/12/17 11:53:31;;;;;;;23.90;16.63;;;6.20;99.90;;;;;;5079373;28;20209;-69
2023/12/17 11:56:17;;;;;;;20.53;14.77;;;6.20;99.90;;;;;;5072064;28;20229;-69
2023/12/17 11:59:02;;;;;;;19.83;15.05;;;6.30;99.90;;;;;;5088361;28;20442;-69
2023/12/17 12:01:48;;;;;;;22.10;15.65;;;6.30;99.90;;;;;;5073713;28;20229;-70
2023/12/17 12:04:40;;;;;;;32.00;14.73;;;6.40;99.90;;;;;;5087552;28;20205;-69
2023/12/17 12:07:27;;;;;;;22.77;14.48;;;6.40;99.90;;;;;;5074483;28;20939;-69
2023/12/17 12:10:13;;;;;;;24.50;16.23;;;6.50;99.90;;;;;;5076975;28;20739;-70
2023/12/17 12:13:05;;;;;;;23.07;14.37;;;6.60;99.90;;;;;;5072029;28;20441;-70
2023/12/17 12:15:51;;;;;;;26.97;12.83;;;6.70;99.90;;;;;;5078266;28;20802;-71
2023/12/17 12:18:37;;;;;;;22.43;14.70;;;6.80;99.90;;;;;;5075846;28;20900;-69
2023/12/17 12:21:23;;;;;;;17.20;11.10;;;6.90;99.90;;;;;;5080692;28;20561;-69
2023/12/17 12:24:19;;;;;;;19.37;12.20;;;7.00;99.90;;;;;;5082412;28;20685;-71
2023/12/17 12:27:06;;;;;;;26.53;13.00;;;7.10;99.90;;;;;;5081509;28;20425;-71
2023/12/17 12:29:53;;;;;;;20.27;11.10;;;7.30;99.90;;;;;;5072896;28;20539;-71
2023/12/17 12:32:38;;;;;;;18.07;10.00;;;7.40;99.90;;;;;;5081943;28;20982;-71
2023/12/17 12:35:29;;;;;;;17.07;10.97;;;7.70;99.90;;;;;;5074764;28;20496;-71
2023/12/17 12:38:20;;;;;;;20.73;10.90;;;8.30;99.90;;;;;;5085095;28;20434;-71
2023/12/17 12:41:12;;;;;;;19.70;10.80;;;9.00;99.90;;;;;;5090041;28;20735;-71
2023/12/17 12:43:58;;;;;;;15.50;9.50;;;9.60;99.90;;;;;;5080441;28;20430;-71
2023/12/17 12:46:47;;;;;;;19.27;9.40;;;10.50;99.90;;;;;;5076324;28;20781;-71
2023/12/17 12:49:32;;;;;;;15.47;9.03;;;11.30;99.90;;;;;;5085015;28;20540;-71
2023/12/17 12:52:18;;;;;;;23.03;10.10;;;12.00;99.90;;;;;;5075093;28;20461;-68
2023/12/17 12:55:04;;;;;;;14.83;8.93;;;12.90;98.20;;;;;;5083856;28;20455;-72
2023/12/17 12:57:51;;;;;;;18.40;9.70;;;13.90;76.70;;;;;;5082131;28;20425;-71
2023/12/17 13:00:37;;;;;;;14.00;8.90;;;15.10;57.10;;;;;;5066155;28;20552;-72
2023/12/17 13:03:23;;;;;;;17.53;8.43;;;15.90;42.10;;;;;;5082029;28;20429;-70
2023/12/17 13:06:09;;;;;;;14.53;8.20;;;16.10;35.40;;;;;;5079617;28;20492;-70
2023/12/17 13:08:54;;;;;;;16.50;9.43;;;15.80;35.50;;;;;;5082888;28;20963;-71
2023/12/17 13:11:40;;;;;;;13.77;9.37;;;14.70;38.50;;;;;;5082632;28;20447;-70
2023/12/17 13:14:29;;;;;;;14.60;8.43;;;13.20;50.00;;;;;;5076990;28;20565;-70
2023/12/17 13:17:15;;;;;;;15.33;9.80;;;12.00;69.10;;;;;;5090298;28;20446;-71
2023/12/17 13:20:00;;;;;;;17.30;11.13;;;10.90;83.10;;;;;;5077673;28;20956;-70
2023/12/17 13:22:46;;;;;;;17.77;11.10;;;10.30;95.40;;;;;;5078122;28;20420;-70
2023/12/17 13:25:32;;;;;;;18.33;11.13;;;9.70;99.60;;;;;;5087178;28;20421;-71
2023/12/17 13:28:18;;;;;;;17.27;11.47;;;9.30;99.90;;;;;;5082246;28;20954;-70
2023/12/17 13:31:07;;;;;;;17.40;10.97;;;8.90;99.90;;;;;;5082534;28;20444;-72
2023/12/17 13:33:52;;;;;;;31.47;20.33;;;8.50;99.90;;;;;;5079320;28;20427;-72
2023/12/17 13:36:38;;;;;;;29.10;20.27;;;8.10;99.90;;;;;;5088942;28;20989;-71
2023/12/17 13:39:24;;;;;;;47.40;29.63;;;7.90;99.90;;;;;;5080153;28;20428;-72
2023/12/17 13:42:10;;;;;;;22.97;14.87;;;7.70;99.90;;;;;;5087058;28;20730;-72
2023/12/17 13:44:56;;;;;;;29.67;19.10;;;7.60;99.90;;;;;;5075662;28;20403;-72
2023/12/17 13:47:42;;;;;;;31.37;18.97;;;7.40;99.90;;;;;;5079750;28;20445;-72
2023/12/17 13:50:28;;;;;;;20.60;14.53;;;7.40;99.90;;;;;;5079440;28;20427;-71
2023/12/17 13:53:14;;;;;;;21.40;13.77;;;7.30;99.90;;;;;;5085968;28;20413;-72
2023/12/17 13:56:00;;;;;;;21.10;13.57;;;7.30;99.90;;;;;;5081641;28;20468;-73
2023/12/17 13:58:45;;;;;;;21.13;13.40;;;7.30;99.90;;;;;;5083638;28;20199;-72
2023/12/17 14:01:31;;;;;;;24.60;14.77;;;7.30;99.90;;;;;;5075196;28;20984;-73
2023/12/17 14:04:18;;;;;;;34.77;20.50;;;7.30;99.90;;;;;;5086693;28;20425;-72
2023/12/17 14:07:04;;;;;;;25.97;13.83;;;7.20;99.90;;;;;;5087161;28;20429;-72
2023/12/17 14:09:49;;;;;;;22.95;14.75;;;7.10;99.90;;;;;;5075179;28;20507;-72
2023/12/17 14:12:35;;;;;;;26.73;14.27;;;7.00;99.90;;;;;;5085343;28;20261;-71
2023/12/17 14:15:22;;;;;;;28.27;17.00;;;6.90;99.90;;;;;;5079291;28;20470;-71
2023/12/17 14:18:07;;;;;;;21.40;15.20;;;6.90;99.90;;;;;;5082155;28;20787;-72